London Airport
CYXU : now visible

Airfield :











YOU CAN JOIN US ON...

 
LOGIN :

Register | Disclaimer

   EN    FR    IT 

 









Legend :    VFR   Marginal VFR   IFR   Intensive IFR   Very Intensive IFR
Visi :
Ceiling :
>= 8 km
>= 3000ft
5 to 8 km
1000 to 3000 ft
1500m to 5 km
500 to 1000 ft
800 to 1500m
200 to 500 ft
< 800m
< 200 ft
Symbols :   Thunderstorms  Fog  Heavy snow  Heavy precipitations  Wind > 20 kt






- Airport Elevation : 912 ft
- IATA code : YXU


CYXU - London

CURRENT METAR :
  • 281200Z 29004KT 12SM -SN FEW009 FEW012 OVC033 M01/M02 A2994 RMK CF1SC2SC6 CF TR SLP151

EXPIRED METARs :
  • 281129Z 29004KT 10SM -SN SCT007 BKN012 OVC033 M01/M02 A2993 RMK CF3SC2SC3 SLP149
  • 281100Z 29004KT 8SM -SN BKN007 BKN011 OVC035 M01/M02 A2993 RMK CF5SC2SC1 SLP147
  • 281031Z 31008KT 12SM -SN FEW009 SCT014 OVC035 M01/M02 A2992 RMK CF2SC2SC4 SLP145
  • 281009Z 31005KT 15SM SCT009 OVC036 M01/M02 A2991 RMK SF4SC4 SLP141
  • 281000Z 31005KT 15SM -SN BKN009 OVC035 M01/M02 A2991 RMK SF5SC3 SLP141
  • 280941Z 31008KT 290V350 12SM -SN BKN008 OVC036 M01/M02 A2991 RMK SF6SC2 SLP140

TAF TAF CYXU
Valid from the 28 at 12:00 until the 29 at 12:00 UTC


281138Z 2812/2912 30007KT P6SM -SN SCT009 OVC030
TEMPO 2812/2814 21/2SM -SN -FZDZ BKN007 OVC020
FM281400 30012KT P6SM -SN FEW008 OVC020
TEMPO 2814/2903 21/2SM -SHSN BKN007 OVC020
PROB30 2814/2820 1SM -SHSN
FM290300 35005KT P6SM OVC020
FM290900 02005KT P6SM BKN025 RMK NXT FCST BY 281800Z



MET'MAP, your aeronautical weather chart ! - Copyright ORBIFLY December 2007 - Disclaimer

ORBIFLY MET'MAP TEAM :

Programming & Development : Alexandra Zaïnal
Concept & original design : Baudouin d'Aumeries
Assistance for programming : Marc-Olivier Méhu
Technical & hardware support : Manuel Goepfert

Contact : metmap@orbifly.com




SOURCES & CREDITS :

   NOAA       Earth
Advisory